Time;durP1;ratioP1;P1;durP2;ratioP2;P2;SDS_P1;SDS_P2;PMS_P1;PMS_P2;Temp;Humidity;BMP_temperature;BMP_pressure;BME280_temperature;BME280_humidity;BME280_pressure;Samples;Min_cycle;Max_cycle;Signal;HPM_P1;HPM_P2
2023/04/20 00:00:47;;;;;;;5.72;2.45;;;8.10;99.90;;;;;;5054313;28;20033;-76
2023/04/20 00:03:13;;;;;;;5.60;2.53;;;8.20;99.90;;;;;;5054136;28;20041;-76
2023/04/20 00:05:38;;;;;;;7.03;2.58;;;8.20;99.90;;;;;;5053225;28;20063;-76
2023/04/20 00:08:04;;;;;;;3.53;2.22;;;8.20;99.90;;;;;;5052864;28;20140;-76
2023/04/20 00:10:29;;;;;;;4.00;2.30;;;8.10;99.90;;;;;;5053002;28;20545;-76
2023/04/20 00:12:55;;;;;;;5.68;2.40;;;8.10;99.90;;;;;;5053020;28;20455;-76
2023/04/20 00:15:20;;;;;;;3.72;2.33;;;8.00;99.90;;;;;;5052847;28;20485;-76
2023/04/20 00:17:47;;;;;;;4.90;2.30;;;8.00;99.90;;;;;;5052297;28;20124;-76
2023/04/20 00:20:14;;;;;;;3.72;1.98;;;7.90;99.90;;;;;;5052787;28;20048;-76
2023/04/20 00:22:39;;;;;;;3.47;1.92;;;7.90;99.90;;;;;;5052657;28;20447;-76
2023/04/20 00:25:05;;;;;;;4.63;1.90;;;7.80;99.90;;;;;;5054045;28;20041;-76
2023/04/20 00:27:31;;;;;;;4.32;1.95;;;7.80;99.90;;;;;;5052129;28;20097;-76
2023/04/20 00:29:57;;;;;;;7.15;1.90;;;7.80;99.90;;;;;;5052544;28;20053;-76
2023/04/20 00:32:22;;;;;;;5.20;1.92;;;7.80;99.90;;;;;;5052320;28;20044;-76
2023/04/20 00:34:48;;;;;;;5.07;1.48;;;7.80;99.90;;;;;;5052310;28;20121;-76
2023/04/20 00:37:14;;;;;;;3.95;2.00;;;7.80;99.90;;;;;;5053377;28;20079;-76
2023/04/20 00:39:40;;;;;;;2.85;1.70;;;7.80;99.90;;;;;;5052402;28;20081;-76
2023/04/20 00:42:08;;;;;;;2.42;1.67;;;7.80;99.90;;;;;;5052101;28;20045;-76
2023/04/20 00:44:34;;;;;;;4.55;1.80;;;7.80;99.90;;;;;;5051936;28;20056;-76
2023/04/20 00:47:00;;;;;;;3.67;1.70;;;7.80;99.90;;;;;;5053116;28;20360;-76
2023/04/20 00:49:28;;;;;;;2.38;1.50;;;7.90;99.90;;;;;;5052952;28;20098;-76
2023/04/20 00:51:56;;;;;;;4.30;1.70;;;8.00;99.90;;;;;;5053265;28;20040;-76
2023/04/20 00:54:22;;;;;;;2.88;1.70;;;8.00;99.90;;;;;;5051874;28;20045;-77
2023/04/20 00:56:48;;;;;;;4.00;1.80;;;8.10;99.90;;;;;;5065566;28;20048;-76
2023/04/20 00:59:14;;;;;;;4.10;2.17;;;8.20;99.90;;;;;;5052954;28;20029;-76
2023/04/20 01:01:40;;;;;;;5.90;2.00;;;8.20;99.90;;;;;;5052876;28;20037;-76
2023/04/20 01:04:06;;;;;;;4.82;1.70;;;8.20;99.90;;;;;;5051290;28;20041;-76
2023/04/20 01:06:32;;;;;;;4.22;1.80;;;8.20;99.90;;;;;;5051766;28;20048;-76
2023/04/20 01:08:57;;;;;;;4.68;1.73;;;8.20;99.90;;;;;;5052700;28;20382;-76
2023/04/20 01:11:23;;;;;;;3.25;1.60;;;8.20;99.90;;;;;;5051440;28;20041;-76
2023/04/20 01:13:49;;;;;;;5.30;2.00;;;8.20;99.90;;;;;;5051451;28;20076;-76
2023/04/20 01:16:15;;;;;;;4.68;1.77;;;8.20;99.90;;;;;;5052621;28;20557;-76
2023/04/20 01:18:46;;;;;;;7.93;2.00;;;8.20;99.90;;;;;;5052568;28;20076;-76
2023/04/20 01:21:12;;;;;;;3.90;1.73;;;8.20;99.90;;;;;;5052738;28;20037;-77
2023/04/20 01:23:38;;;;;;;5.20;1.55;;;8.30;99.90;;;;;;5051428;28;20107;-77
2023/04/20 01:26:08;;;;;;;4.63;1.70;;;8.20;99.90;;;;;;5051079;28;20064;-77
2023/04/20 01:28:34;;;;;;;3.28;1.70;;;8.30;99.90;;;;;;5052219;28;20055;-77
2023/04/20 01:31:05;;;;;;;4.05;1.55;;;8.30;99.90;;;;;;5034515;28;20041;-76
2023/04/20 01:33:31;;;;;;;2.78;1.50;;;8.30;99.90;;;;;;5052481;28;20064;-77
2023/04/20 01:35:57;;;;;;;8.73;1.80;;;8.40;99.90;;;;;;5050922;28;20040;-76
2023/04/20 01:38:23;;;;;;;5.40;2.00;;;8.40;99.90;;;;;;5034449;28;20507;-77
2023/04/20 01:40:49;;;;;;;4.07;1.70;;;8.40;99.90;;;;;;5050890;28;20056;-77
2023/04/20 01:43:15;;;;;;;2.30;1.60;;;8.30;99.90;;;;;;5052194;28;20455;-77
2023/04/20 01:45:41;;;;;;;3.53;1.75;;;8.30;99.90;;;;;;5051002;28;20120;-77
2023/04/20 01:48:06;;;;;;;5.95;2.10;;;8.20;99.90;;;;;;5051906;28;20108;-77
2023/04/20 01:50:32;;;;;;;3.55;1.50;;;8.10;99.90;;;;;;5050721;28;20045;-77
2023/04/20 01:52:58;;;;;;;3.47;1.55;;;8.10;99.90;;;;;;5050729;28;20514;-77
2023/04/20 01:55:23;;;;;;;5.35;1.98;;;8.00;99.90;;;;;;5054731;28;20418;-77
2023/04/20 01:57:49;;;;;;;3.30;1.70;;;7.90;99.90;;;;;;5060599;28;20128;-77
2023/04/20 02:00:15;;;;;;;6.45;1.98;;;7.80;99.90;;;;;;5050793;28;20080;-77
2023/04/20 02:02:40;;;;;;;2.72;1.70;;;7.80;99.90;;;;;;5050555;28;20045;-77
2023/04/20 02:05:06;;;;;;;2.10;1.40;;;7.70;99.90;;;;;;5051921;28;20033;-77
2023/04/20 02:07:32;;;;;;;5.13;1.95;;;7.60;99.90;;;;;;5051582;28;20086;-77
2023/04/20 02:09:57;;;;;;;5.82;2.15;;;7.60;99.90;;;;;;5050373;28;20412;-77
2023/04/20 02:12:23;;;;;;;7.28;2.20;;;7.50;99.90;;;;;;5050223;28;20443;-77
2023/04/20 02:14:49;;;;;;;6.78;1.80;;;7.40;99.90;;;;;;5049571;28;20397;-77
2023/04/20 02:17:14;;;;;;;3.90;1.73;;;7.40;99.90;;;;;;5049975;28;20045;-77
2023/04/20 02:19:40;;;;;;;3.70;1.90;;;7.30;99.90;;;;;;5050310;28;20493;-77
2023/04/20 02:22:06;;;;;;;4.30;1.98;;;7.30;99.90;;;;;;5050268;28;20510;-77
2023/04/20 02:24:31;;;;;;;5.10;1.75;;;7.20;99.90;;;;;;5050027;28;20500;-77
2023/04/20 02:26:57;;;;;;;5.15;1.90;;;7.20;99.90;;;;;;5051207;28;20068;-77
2023/04/20 02:29:23;;;;;;;4.80;2.00;;;7.20;99.90;;;;;;5050030;28;20051;-77
2023/04/20 02:31:49;;;;;;;4.15;1.77;;;7.20;99.90;;;;;;5050147;28;20047;-77
2023/04/20 02:34:14;;;;;;;5.60;2.00;;;7.10;99.90;;;;;;5049890;28;20040;-77
2023/04/20 02:36:40;;;;;;;6.20;2.25;;;7.20;99.90;;;;;;5049972;28;20386;-78
2023/04/20 02:39:06;;;;;;;4.20;1.85;;;7.20;99.90;;;;;;5049864;28;20041;-78
2023/04/20 02:41:31;;;;;;;5.25;1.67;;;7.20;99.90;;;;;;5049746;28;20045;-78
2023/04/20 02:43:57;;;;;;;5.18;2.05;;;7.20;99.90;;;;;;5033300;28;20408;-77
2023/04/20 02:46:22;;;;;;;5.43;2.13;;;7.20;99.90;;;;;;5049754;28;20055;-77
2023/04/20 02:48:48;;;;;;;6.25;2.15;;;7.30;99.90;;;;;;5051143;28;20210;-77
2023/04/20 02:51:14;;;;;;;5.00;2.00;;;7.30;99.90;;;;;;5049695;28;20087;-78
2023/04/20 02:53:39;;;;;;;6.28;2.00;;;7.40;99.90;;;;;;5033265;28;20132;-78
2023/04/20 02:56:05;;;;;;;5.05;1.90;;;7.40;99.90;;;;;;5059359;28;20041;-77
2023/04/20 02:58:30;;;;;;;4.55;2.03;;;7.40;99.90;;;;;;5053772;28;20033;-77
2023/04/20 03:01:00;;;;;;;6.32;2.38;;;7.50;99.90;;;;;;5050004;28;20036;-77
2023/04/20 03:03:26;;;;;;;2.78;1.85;;;7.60;99.90;;;;;;5049841;28;20118;-77
2023/04/20 03:05:52;;;;;;;4.82;1.80;;;7.60;99.90;;;;;;5049954;28;20127;-77
2023/04/20 03:08:17;;;;;;;5.18;1.98;;;7.70;99.90;;;;;;5050763;28;20179;-78
2023/04/20 03:10:43;;;;;;;3.90;2.00;;;7.80;99.90;;;;;;5051238;28;20029;-77
2023/04/20 03:13:08;;;;;;;5.00;1.90;;;7.80;99.90;;;;;;5049654;28;20041;-78
2023/04/20 03:15:34;;;;;;;3.53;1.90;;;7.90;99.90;;;;;;5049515;28;20489;-78
2023/04/20 03:18:00;;;;;;;2.88;1.92;;;7.90;99.90;;;;;;5049384;28;20077;-77
2023/04/20 03:20:26;;;;;;;4.68;2.10;;;8.00;99.90;;;;;;5050779;28;20518;-78
2023/04/20 03:22:51;;;;;;;4.68;1.80;;;8.00;99.90;;;;;;5049699;28;20044;-78
2023/04/20 03:25:17;;;;;;;4.00;1.85;;;8.10;99.90;;;;;;5050092;28;20409;-77
2023/04/20 03:27:45;;;;;;;5.22;2.22;;;8.10;99.90;;;;;;5054658;28;20043;-78
2023/04/20 03:30:12;;;;;;;4.53;2.20;;;8.10;99.90;;;;;;5054853;28;20060;-77
2023/04/20 03:32:37;;;;;;;5.45;2.05;;;8.10;99.90;;;;;;5053518;28;20041;-78
2023/04/20 03:35:07;;;;;;;4.93;2.00;;;8.10;99.90;;;;;;5053810;28;20303;-78
2023/04/20 03:37:33;;;;;;;4.53;2.17;;;8.20;99.90;;;;;;5053266;28;20044;-76
2023/04/20 03:39:59;;;;;;;4.78;1.90;;;8.20;99.90;;;;;;5054705;28;20511;-77
2023/04/20 03:42:24;;;;;;;3.22;1.90;;;8.20;99.90;;;;;;5053342;28;20123;-77
2023/04/20 03:44:50;;;;;;;5.85;2.20;;;8.20;99.90;;;;;;5053310;28;20115;-78
2023/04/20 03:47:16;;;;;;;5.88;2.10;;;8.20;99.90;;;;;;5053052;28;20087;-77
2023/04/20 03:49:41;;;;;;;6.53;1.98;;;8.20;99.90;;;;;;5054435;28;20037;-77
2023/04/20 03:52:07;;;;;;;4.05;1.80;;;8.20;99.90;;;;;;5053441;28;20045;-77
2023/04/20 03:54:32;;;;;;;4.15;2.00;;;8.20;99.90;;;;;;5054042;28;20033;-77
2023/04/20 03:56:58;;;;;;;6.72;2.10;;;8.20;99.90;;;;;;5066961;28;20033;-77
2023/04/20 03:59:23;;;;;;;4.15;2.05;;;8.20;99.90;;;;;;5054233;28;20132;-77
2023/04/20 04:01:49;;;;;;;6.28;1.88;;;8.20;99.90;;;;;;5053007;28;20141;-77
2023/04/20 04:04:14;;;;;;;4.97;1.85;;;8.10;99.90;;;;;;5054491;28;20366;-77
2023/04/20 04:06:41;;;;;;;5.15;1.92;;;8.10;99.90;;;;;;5052982;28;20045;-77
2023/04/20 04:09:07;;;;;;;3.58;1.83;;;8.20;99.90;;;;;;5053925;28;20116;-77
2023/04/20 04:11:33;;;;;;;6.35;2.50;;;8.20;99.90;;;;;;5054231;28;20534;-77
2023/04/20 04:13:59;;;;;;;2.97;1.60;;;8.20;99.90;;;;;;5054196;28;20033;-77
2023/04/20 04:16:24;;;;;;;6.55;2.00;;;8.20;99.90;;;;;;5053877;28;20052;-76
2023/04/20 04:18:50;;;;;;;2.80;1.77;;;8.20;99.90;;;;;;5052319;28;20071;-77
2023/04/20 04:21:15;;;;;;;5.45;1.60;;;8.10;99.90;;;;;;5052675;28;20408;-77
2023/04/20 04:23:41;;;;;;;7.13;1.60;;;8.10;99.90;;;;;;5052460;28;20594;-78
2023/04/20 04:26:07;;;;;;;4.63;1.73;;;8.20;99.90;;;;;;5052569;28;20515;-77
2023/04/20 04:28:33;;;;;;;5.32;1.90;;;8.10;99.90;;;;;;5052345;28;20122;-77
2023/04/20 04:31:04;;;;;;;3.75;1.80;;;8.10;99.90;;;;;;5052647;28;20068;-77
2023/04/20 04:33:33;;;;;;;7.00;1.60;;;8.00;99.90;;;;;;5052440;28;20062;-77
2023/04/20 04:35:59;;;;;;;4.40;2.25;;;7.90;99.90;;;;;;5052313;28;20115;-76
2023/04/20 04:38:25;;;;;;;4.20;2.05;;;7.90;99.90;;;;;;5051432;28;20041;-77
2023/04/20 04:40:51;;;;;;;3.22;1.75;;;7.90;99.90;;;;;;5053558;28;20049;-77
2023/04/20 04:43:18;;;;;;;4.75;1.80;;;7.80;99.90;;;;;;5053503;28;20049;-76
2023/04/20 04:45:44;;;;;;;3.92;2.10;;;7.90;99.90;;;;;;5052154;28;20091;-76
2023/04/20 04:48:11;;;;;;;5.18;1.90;;;7.80;99.90;;;;;;5053478;28;20033;-75
2023/04/20 04:50:37;;;;;;;3.15;1.95;;;7.80;99.90;;;;;;5051907;28;20048;-77
2023/04/20 04:53:03;;;;;;;3.85;1.80;;;7.80;99.90;;;;;;5052037;28;20048;-77
2023/04/20 04:55:28;;;;;;;4.00;1.90;;;7.80;99.90;;;;;;5057862;28;20036;-76
2023/04/20 04:57:54;;;;;;;4.85;1.60;;;7.90;99.90;;;;;;5060982;28;20052;-77
2023/04/20 05:00:21;;;;;;;4.65;1.88;;;7.90;99.90;;;;;;5052070;28;20491;-77
2023/04/20 05:02:46;;;;;;;3.45;1.92;;;7.90;99.90;;;;;;5051951;28;20080;-77
2023/04/20 05:05:12;;;;;;;4.75;1.73;;;7.80;99.90;;;;;;5051882;28;20077;-77
2023/04/20 05:07:38;;;;;;;3.13;1.80;;;7.80;99.90;;;;;;5051744;28;20057;-78
2023/04/20 05:10:05;;;;;;;3.95;1.80;;;7.70;99.90;;;;;;5051962;28;20041;-77
2023/04/20 05:12:31;;;;;;;4.40;1.70;;;7.60;99.90;;;;;;5051615;28;20429;-78
2023/04/20 05:14:57;;;;;;;4.53;1.88;;;7.60;99.90;;;;;;5052917;28;20128;-78
2023/04/20 05:17:22;;;;;;;4.20;1.98;;;7.60;99.90;;;;;;5051368;28;20044;-78
2023/04/20 05:19:48;;;;;;;3.13;1.95;;;7.50;99.90;;;;;;5052884;28;20545;-77
2023/04/20 05:22:13;;;;;;;3.90;2.13;;;7.50;99.90;;;;;;5051492;28;20078;-78
2023/04/20 05:24:39;;;;;;;4.85;2.00;;;7.40;99.90;;;;;;5051540;28;20440;-78
2023/04/20 05:27:05;;;;;;;5.75;2.15;;;7.40;99.90;;;;;;5051656;28;20064;-77
2023/04/20 05:29:31;;;;;;;5.45;1.80;;;7.40;99.90;;;;;;5052537;28;20041;-77
2023/04/20 05:31:56;;;;;;;4.68;2.00;;;7.40;99.90;;;;;;5051379;28;20075;-79
2023/04/20 05:34:22;;;;;;;5.13;2.00;;;7.40;99.90;;;;;;5051277;28;20033;-78
2023/04/20 05:36:47;;;;;;;3.90;2.10;;;7.40;99.90;;;;;;5051308;28;20049;-78
2023/04/20 05:39:13;;;;;;;5.28;2.45;;;7.40;99.90;;;;;;5051207;28;20041;-77
2023/04/20 05:41:39;;;;;;;3.70;2.05;;;7.40;99.90;;;;;;5051310;28;20102;-78
2023/04/20 05:44:04;;;;;;;6.43;2.03;;;7.40;99.90;;;;;;5051709;28;20115;-77
2023/04/20 05:46:30;;;;;;;4.13;1.98;;;7.40;99.90;;;;;;5053466;28;20102;-76
2023/04/20 05:48:56;;;;;;;3.75;2.05;;;7.40;99.90;;;;;;5049832;28;20037;-77
2023/04/20 05:51:21;;;;;;;4.22;2.05;;;7.30;99.90;;;;;;5052421;28;20053;-78
2023/04/20 05:53:47;;;;;;;5.15;1.90;;;7.40;99.90;;;;;;5051263;28;20044;-76
2023/04/20 05:56:13;;;;;;;4.90;2.30;;;7.40;99.90;;;;;;5063213;28;20512;-76
2023/04/20 05:58:40;;;;;;;5.00;2.10;;;7.40;99.90;;;;;;5054012;28;20043;-78
2023/04/20 06:01:06;;;;;;;5.60;2.10;;;7.40;99.90;;;;;;5050941;28;20041;-77
2023/04/20 06:03:32;;;;;;;4.10;1.88;;;7.40;99.90;;;;;;5051864;28;20494;-78
2023/04/20 06:05:57;;;;;;;4.35;1.83;;;7.40;99.90;;;;;;5051032;28;20127;-77
2023/04/20 06:08:23;;;;;;;2.92;1.90;;;7.40;99.90;;;;;;5052146;28;20044;-77
2023/04/20 06:10:53;;;;;;;4.13;2.10;;;7.40;99.90;;;;;;5050645;28;20037;-78
2023/04/20 06:13:19;;;;;;;4.63;2.20;;;7.40;99.90;;;;;;5050927;28;20060;-77
2023/04/20 06:15:44;;;;;;;3.53;1.95;;;7.40;99.90;;;;;;5034153;28;20032;-77
2023/04/20 06:18:10;;;;;;;3.75;1.83;;;7.50;99.90;;;;;;5050580;28;20428;-77
2023/04/20 06:20:35;;;;;;;4.55;1.98;;;7.50;99.90;;;;;;5052027;28;20524;-77
2023/04/20 06:23:01;;;;;;;4.35;2.05;;;7.40;99.90;;;;;;5050746;28;20112;-77
2023/04/20 06:25:26;;;;;;;5.38;2.00;;;7.40;99.90;;;;;;5050768;28;20051;-76
2023/04/20 06:27:52;;;;;;;7.43;1.88;;;7.40;99.90;;;;;;5052041;28;20033;-78
2023/04/20 06:30:17;;;;;;;6.28;2.40;;;7.30;99.90;;;;;;5050308;28;20044;-78
2023/04/20 06:32:43;;;;;;;5.82;2.25;;;7.30;99.90;;;;;;5051038;28;20060;-78
2023/04/20 06:35:09;;;;;;;8.50;2.25;;;7.20;99.90;;;;;;5051918;28;20033;-78
2023/04/20 06:37:35;;;;;;;3.38;1.95;;;7.20;99.90;;;;;;5049962;28;20479;-78
2023/04/20 06:40:02;;;;;;;3.83;2.63;;;7.10;99.90;;;;;;5050567;28;20120;-77
2023/04/20 06:42:28;;;;;;;5.85;2.38;;;7.10;99.90;;;;;;5050237;28;20056;-77
2023/04/20 06:44:55;;;;;;;6.78;2.35;;;7.20;99.90;;;;;;5050422;28;20041;-78
2023/04/20 06:47:21;;;;;;;5.68;2.08;;;7.10;99.90;;;;;;5050216;28;20408;-78
2023/04/20 06:49:46;;;;;;;6.63;2.20;;;7.10;99.90;;;;;;5050052;28;20071;-78
2023/04/20 06:52:12;;;;;;;3.80;2.40;;;7.10;99.90;;;;;;5050169;28;20562;-78
2023/04/20 06:54:37;;;;;;;6.18;2.42;;;7.10;99.90;;;;;;5050034;28;20044;-78
2023/04/20 06:57:03;;;;;;;5.15;2.22;;;7.00;99.90;;;;;;5065405;28;20087;-78
2023/04/20 06:59:28;;;;;;;4.18;2.40;;;7.00;99.90;;;;;;5049826;28;20037;-78
2023/04/20 07:01:54;;;;;;;4.88;2.17;;;7.00;99.90;;;;;;5049530;28;20044;-77
2023/04/20 07:04:19;;;;;;;5.28;2.58;;;7.00;99.90;;;;;;5049730;28;20481;-78
2023/04/20 07:06:45;;;;;;;3.97;2.10;;;7.00;99.90;;;;;;5050807;28;20496;-77
2023/04/20 07:09:10;;;;;;;5.45;2.45;;;7.00;99.90;;;;;;5049548;28;20036;-77
2023/04/20 07:11:36;;;;;;;5.63;2.30;;;7.00;99.90;;;;;;5049913;28;20049;-77
2023/04/20 07:14:01;;;;;;;5.15;2.20;;;7.00;99.90;;;;;;5050813;28;20098;-78
2023/04/20 07:16:27;;;;;;;5.60;2.97;;;7.00;99.90;;;;;;5049420;28;20041;-77
2023/04/20 07:18:53;;;;;;;8.40;2.65;;;7.00;99.90;;;;;;5049316;28;20033;-78
2023/04/20 07:21:18;;;;;;;5.30;2.70;;;7.00;99.90;;;;;;5050940;28;20446;-78
2023/04/20 07:23:44;;;;;;;5.30;2.60;;;7.10;99.90;;;;;;5049555;28;20044;-77
2023/04/20 07:26:09;;;;;;;3.42;2.28;;;7.00;99.90;;;;;;5049779;28;20389;-78
2023/04/20 07:28:35;;;;;;;4.78;2.83;;;7.10;99.90;;;;;;5049522;28;20171;-77
2023/04/20 07:31:01;;;;;;;4.22;2.55;;;7.10;99.90;;;;;;5049256;28;20091;-78
2023/04/20 07:33:28;;;;;;;4.75;2.53;;;7.00;99.90;;;;;;5049528;28;20672;-77
2023/04/20 07:35:54;;;;;;;6.50;2.80;;;7.00;99.90;;;;;;5049333;28;20052;-77
2023/04/20 07:38:19;;;;;;;4.32;2.53;;;7.00;99.90;;;;;;5049538;28;20049;-77
2023/04/20 07:40:45;;;;;;;5.28;2.70;;;7.10;99.90;;;;;;5049746;28;20044;-78
2023/04/20 07:43:10;;;;;;;5.07;2.70;;;7.00;99.90;;;;;;5049333;28;20041;-78
2023/04/20 07:45:38;;;;;;;3.17;2.20;;;7.10;99.90;;;;;;5049326;28;20072;-79
2023/04/20 07:48:04;;;;;;;4.68;2.75;;;7.10;99.90;;;;;;5050115;28;20033;-77
2023/04/20 07:50:30;;;;;;;5.05;3.00;;;7.10;99.90;;;;;;5050555;28;20398;-78
2023/04/20 07:52:55;;;;;;;4.60;2.75;;;7.20;99.90;;;;;;5049360;28;20037;-78
2023/04/20 07:55:21;;;;;;;4.85;2.90;;;7.20;99.90;;;;;;5052778;28;20419;-78
2023/04/20 07:57:46;;;;;;;4.45;2.60;;;7.20;99.90;;;;;;5059532;28;20041;-78
2023/04/20 08:00:13;;;;;;;6.47;2.72;;;7.20;99.90;;;;;;5049139;28;20045;-77
2023/04/20 08:02:38;;;;;;;3.92;2.50;;;7.10;99.90;;;;;;5049087;28;20041;-79
2023/04/20 08:05:04;;;;;;;5.38;2.90;;;7.10;99.90;;;;;;5049278;28;20111;-78
2023/04/20 08:07:30;;;;;;;5.35;3.20;;;7.10;99.90;;;;;;5048764;28;20124;-78
2023/04/20 08:10:00;;;;;;;6.70;3.08;;;7.10;99.90;;;;;;5050353;28;20124;-78
2023/04/20 08:12:25;;;;;;;4.00;2.55;;;7.10;99.90;;;;;;5049760;28;20504;-77
2023/04/20 08:14:51;;;;;;;5.47;3.00;;;7.20;99.90;;;;;;5053858;28;20116;-78
2023/04/20 08:17:16;;;;;;;3.72;2.70;;;7.20;99.90;;;;;;5053550;28;20090;-78
2023/04/20 08:19:42;;;;;;;7.57;3.08;;;7.20;99.90;;;;;;5052837;28;20104;-77
2023/04/20 08:22:08;;;;;;;5.00;2.83;;;7.10;99.90;;;;;;5052464;28;20041;-78
2023/04/20 08:24:33;;;;;;;4.82;3.17;;;7.30;99.90;;;;;;5052576;28;20044;-78
2023/04/20 08:27:00;;;;;;;5.72;3.25;;;7.40;99.90;;;;;;5052815;28;20051;-77
2023/04/20 08:29:26;;;;;;;6.32;3.15;;;7.50;99.90;;;;;;5052438;28;20051;-78
2023/04/20 08:31:51;;;;;;;5.00;2.80;;;7.50;99.90;;;;;;5052557;28;20045;-78
2023/04/20 08:34:17;;;;;;;4.22;2.90;;;7.60;99.90;;;;;;5052389;28;20045;-79
2023/04/20 08:36:42;;;;;;;7.57;3.08;;;7.60;99.90;;;;;;5052474;28;20037;-79
2023/04/20 08:39:14;;;;;;;7.20;3.33;;;7.60;99.90;;;;;;5066442;28;20044;-78
2023/04/20 08:41:39;;;;;;;6.18;3.17;;;7.60;99.90;;;;;;5053549;28;20124;-78
2023/04/20 08:44:06;;;;;;;5.50;3.20;;;7.60;99.90;;;;;;5052399;28;20075;-79
2023/04/20 08:46:33;;;;;;;5.43;3.38;;;7.60;99.90;;;;;;5052500;28;20137;-78
2023/04/20 08:49:01;;;;;;;7.05;3.50;;;7.60;99.90;;;;;;5053935;28;20401;-80
2023/04/20 08:51:27;;;;;;;5.07;3.08;;;7.70;99.90;;;;;;5053859;28;20381;-79
2023/04/20 08:53:55;;;;;;;5.22;3.05;;;7.70;99.90;;;;;;5061509;28;20090;-78
2023/04/20 08:56:34;;;;;;;4.80;3.40;;;7.70;99.90;;;;;;5067970;28;20059;-78
2023/04/20 08:59:04;;;;;;;5.85;3.33;;;7.80;99.90;;;;;;5053742;28;20048;-79
2023/04/20 09:01:31;;;;;;;5.70;3.20;;;7.90;99.90;;;;;;5051933;28;20532;-79
2023/04/20 09:03:57;;;;;;;4.95;3.70;;;7.90;99.90;;;;;;5053288;28;20515;-78
2023/04/20 09:06:23;;;;;;;4.93;3.55;;;7.90;99.90;;;;;;5053624;28;20337;-78
2023/04/20 09:08:48;;;;;;;9.63;3.58;;;8.00;99.90;;;;;;5051929;28;20120;-78
2023/04/20 09:11:25;;;;;;;5.63;3.90;;;8.10;99.90;;;;;;5052059;28;20037;-78
2023/04/20 09:14:05;;;;;;;5.60;3.50;;;8.10;99.90;;;;;;5053373;28;20067;-79
2023/04/20 09:16:33;;;;;;;6.15;3.75;;;8.20;99.90;;;;;;5051689;28;20044;-79
2023/04/20 09:18:59;;;;;;;5.28;3.90;;;8.30;99.90;;;;;;5051628;28;20079;-78
2023/04/20 09:21:27;;;;;;;6.57;3.85;;;8.40;99.90;;;;;;5052988;28;20429;-79
2023/04/20 09:24:00;;;;;;;5.32;4.07;;;8.50;99.90;;;;;;5052599;28;20102;-78
2023/04/20 09:26:26;;;;;;;4.43;3.40;;;8.40;99.90;;;;;;5052798;28;20497;-78
2023/04/20 09:28:52;;;;;;;6.75;3.90;;;8.50;99.90;;;;;;5051508;28;20082;-78
2023/04/20 09:31:20;;;;;;;6.10;4.60;;;8.60;99.90;;;;;;5053258;28;20406;-78
2023/04/20 09:33:58;;;;;;;7.40;3.88;;;8.80;99.90;;;;;;5053544;28;20044;-79
2023/04/20 09:36:33;;;;;;;7.95;3.92;;;9.00;99.90;;;;;;5051973;28;20167;-78
2023/04/20 09:39:13;;;;;;;7.43;4.15;;;9.10;99.90;;;;;;5053509;28;20044;-78
2023/04/20 09:41:40;;;;;;;6.63;4.68;;;9.00;99.90;;;;;;5054066;28;20049;-79
2023/04/20 09:44:07;;;;;;;7.72;4.22;;;9.00;99.90;;;;;;5052550;28;20052;-78
2023/04/20 09:46:34;;;;;;;6.40;3.90;;;9.00;99.90;;;;;;5053623;28;20029;-78
2023/04/20 09:49:03;;;;;;;7.18;4.18;;;9.10;99.90;;;;;;5054358;28;20447;-79
2023/04/20 09:51:30;;;;;;;5.60;3.55;;;9.40;99.90;;;;;;5052591;28;20099;-80
2023/04/20 09:54:00;;;;;;;7.80;4.22;;;9.40;99.90;;;;;;5053672;28;20041;-80
2023/04/20 09:56:27;;;;;;;8.10;4.57;;;9.40;99.90;;;;;;5066132;28;20063;-78
2023/04/20 09:58:53;;;;;;;6.13;3.80;;;9.40;99.90;;;;;;5054057;28;20116;-79
2023/04/20 10:01:21;;;;;;;8.00;3.80;;;9.30;99.90;;;;;;5053784;28;20099;-80
2023/04/20 10:03:47;;;;;;;5.80;3.70;;;9.30;99.90;;;;;;5053272;28;20049;-79
2023/04/20 10:06:24;;;;;;;5.05;3.50;;;9.40;99.90;;;;;;5054565;28;20037;-79
2023/04/20 10:08:51;;;;;;;5.75;4.10;;;9.50;99.90;;;;;;5054739;28;20504;-78
2023/04/20 10:11:43;;;;;;;7.57;4.20;;;9.40;99.90;;;;;;5053814;28;20107;-78
2023/04/20 10:14:19;;;;;;;6.93;4.20;;;9.30;99.90;;;;;;5050600;28;20515;-80
2023/04/20 10:16:56;;;;;;;7.10;4.00;;;9.20;99.90;;;;;;5054405;28;20033;-79
2023/04/20 10:19:22;;;;;;;7.20;3.75;;;9.10;99.90;;;;;;5053633;28;20116;-80
2023/04/20 10:21:49;;;;;;;6.38;3.83;;;9.00;99.90;;;;;;5053392;28;20077;-79
2023/04/20 10:24:27;;;;;;;6.40;4.07;;;9.00;99.90;;;;;;5052879;28;20076;-80
2023/04/20 10:26:53;;;;;;;6.75;4.07;;;8.80;99.90;;;;;;5053637;28;20131;-80
2023/04/20 10:29:28;;;;;;;5.57;3.90;;;8.70;99.90;;;;;;5054170;28;20453;-79
2023/04/20 10:31:54;;;;;;;9.55;4.28;;;8.70;99.90;;;;;;5053856;28;20076;-80
2023/04/20 10:34:35;;;;;;;6.05;3.85;;;8.50;99.90;;;;;;5054070;28;20392;-80
2023/04/20 10:37:08;;;;;;;6.63;3.97;;;8.40;99.90;;;;;;5052177;28;20044;-80
2023/04/20 10:39:36;;;;;;;5.15;3.80;;;8.40;99.90;;;;;;5052630;28;20485;-79
2023/04/20 10:42:02;;;;;;;7.50;4.07;;;8.40;99.90;;;;;;5054811;28;20455;-80
2023/04/20 10:44:27;;;;;;;7.85;4.03;;;8.50;99.90;;;;;;5053419;28;20047;-78
2023/04/20 10:46:54;;;;;;;5.72;3.58;;;8.50;99.90;;;;;;5052112;28;20036;-78
2023/04/20 10:49:25;;;;;;;7.22;4.43;;;8.50;99.90;;;;;;5056103;28;20051;-78
2023/04/20 10:51:52;;;;;;;6.85;4.13;;;8.40;99.90;;;;;;5051647;28;20037;-80
2023/04/20 10:54:18;;;;;;;7.78;4.18;;;8.50;99.90;;;;;;5052301;28;20392;-80
2023/04/20 10:56:50;;;;;;;7.65;4.10;;;8.50;99.90;;;;;;5066271;28;20093;-79
2023/04/20 10:59:19;;;;;;;8.23;4.68;;;8.50;99.90;;;;;;5052389;28;20060;-79
2023/04/20 11:01:45;;;;;;;8.75;4.63;;;8.60;99.90;;;;;;5052133;28;20055;-79
2023/04/20 11:04:12;;;;;;;5.72;4.15;;;8.70;99.90;;;;;;5051413;28;20175;-79
2023/04/20 11:06:39;;;;;;;7.00;4.50;;;8.80;99.90;;;;;;5051412;28;20120;-80
2023/04/20 11:09:22;;;;;;;8.35;4.88;;;8.80;99.90;;;;;;5051878;28;20049;-79
2023/04/20 11:11:58;;;;;;;8.82;4.55;;;8.90;99.90;;;;;;5051690;28;20408;-80
2023/04/20 11:14:24;;;;;;;6.68;4.70;;;8.80;99.90;;;;;;5053035;28;20045;-79
2023/04/20 11:16:51;;;;;;;9.70;4.75;;;8.80;99.90;;;;;;5051389;28;20036;-79
2023/04/20 11:19:29;;;;;;;9.82;4.68;;;8.80;99.90;;;;;;5051498;28;20049;-79
2023/04/20 11:21:55;;;;;;;8.95;5.07;;;8.70;99.90;;;;;;5051485;28;20570;-78
2023/04/20 11:24:23;;;;;;;9.30;5.40;;;8.80;99.90;;;;;;5051438;28;20102;-80
2023/04/20 11:26:49;;;;;;;8.10;5.43;;;8.80;99.90;;;;;;5053238;28;20068;-78
2023/04/20 11:29:37;;;;;;;7.22;4.97;;;8.90;99.90;;;;;;5050939;28;20044;-79
2023/04/20 11:32:05;;;;;;;8.30;5.30;;;9.00;99.90;;;;;;5051286;28;20053;-79
2023/04/20 11:34:31;;;;;;;7.78;5.28;;;8.90;99.90;;;;;;5050833;28;20086;-80
2023/04/20 11:37:03;;;;;;;8.05;5.53;;;8.80;99.90;;;;;;5050558;28;20032;-79
2023/04/20 11:39:29;;;;;;;7.93;5.18;;;8.70;99.90;;;;;;5050929;28;20493;-78
2023/04/20 11:41:56;;;;;;;9.93;5.35;;;8.60;99.90;;;;;;5052488;28;20048;-79
2023/04/20 11:44:24;;;;;;;8.25;5.45;;;8.60;99.90;;;;;;5050809;28;20076;-79
2023/04/20 11:46:53;;;;;;;7.68;4.85;;;8.60;99.90;;;;;;5052582;28;20045;-79
2023/04/20 11:49:19;;;;;;;10.90;5.97;;;8.50;99.90;;;;;;5055998;28;20052;-79
2023/04/20 11:51:46;;;;;;;10.43;5.47;;;8.60;99.90;;;;;;5054472;28;20045;-78
2023/04/20 11:54:12;;;;;;;7.95;5.75;;;8.70;99.90;;;;;;5054175;28;20040;-79
2023/04/20 11:56:40;;;;;;;8.68;5.63;;;8.80;99.90;;;;;;5068508;28;20044;-79
2023/04/20 11:59:07;;;;;;;8.68;5.97;;;9.00;99.90;;;;;;5056010;28;20100;-79
2023/04/20 12:01:32;;;;;;;10.40;6.20;;;9.10;99.90;;;;;;5053719;28;20052;-78
2023/04/20 12:04:00;;;;;;;10.43;6.30;;;9.10;99.90;;;;;;5053314;28;20408;-78
2023/04/20 12:06:27;;;;;;;11.57;7.03;;;9.10;99.90;;;;;;5054629;28;20045;-78
2023/04/20 12:08:54;;;;;;;9.55;6.28;;;9.20;99.90;;;;;;5054367;28;20522;-78
2023/04/20 12:11:20;;;;;;;9.32;6.05;;;9.30;99.90;;;;;;5053365;28;20036;-77
2023/04/20 12:13:45;;;;;;;9.80;6.68;;;9.50;99.90;;;;;;5054441;28;20037;-78
2023/04/20 12:16:11;;;;;;;8.57;6.05;;;9.70;99.90;;;;;;5053240;28;20123;-77
2023/04/20 12:18:37;;;;;;;9.43;6.85;;;9.70;99.90;;;;;;5054053;28;20114;-78
2023/04/20 12:21:02;;;;;;;11.43;6.97;;;9.80;99.90;;;;;;5054340;28;20029;-78
2023/04/20 12:23:28;;;;;;;12.45;7.32;;;9.70;99.90;;;;;;5054337;28;20048;-76
2023/04/20 12:25:54;;;;;;;10.65;6.68;;;9.80;99.90;;;;;;5052789;28;20087;-78
2023/04/20 12:28:19;;;;;;;10.95;6.95;;;9.90;99.90;;;;;;5053832;28;20405;-78
2023/04/20 12:30:45;;;;;;;10.90;7.22;;;9.90;99.90;;;;;;5052803;28;20083;-77
2023/04/20 12:33:11;;;;;;;11.80;7.50;;;10.10;99.90;;;;;;5054255;28;20082;-78
2023/04/20 12:35:37;;;;;;;10.63;7.35;;;10.40;99.90;;;;;;5052624;28;20128;-78
2023/04/20 12:38:02;;;;;;;11.43;7.95;;;10.60;99.90;;;;;;5052355;28;20091;-78
2023/04/20 12:40:28;;;;;;;15.00;8.27;;;10.90;99.90;;;;;;5054809;28;20076;-78
2023/04/20 12:42:53;;;;;;;11.43;8.30;;;11.20;99.90;;;;;;5052597;28;20033;-77
2023/04/20 12:45:19;;;;;;;9.82;7.65;;;11.50;99.90;;;;;;5053803;28;20090;-78
2023/04/20 12:47:45;;;;;;;10.82;7.45;;;12.10;99.90;;;;;;5052172;28;20048;-77
2023/04/20 12:50:11;;;;;;;9.73;7.30;;;12.30;99.90;;;;;;5052194;28;20041;-77
2023/04/20 12:52:36;;;;;;;9.10;7.18;;;12.30;99.90;;;;;;5053564;28;20460;-78